createdAt,value
2017-11-16T00:00:44.462Z,0
2017-11-16T00:01:44.741Z,0
2017-11-16T00:02:44.484Z,0
2017-11-16T00:03:44.506Z,0
2017-11-16T00:04:44.538Z,0
2017-11-16T00:05:44.540Z,0
2017-11-16T00:06:44.815Z,0
2017-11-16T00:07:44.835Z,0
2017-11-16T00:08:44.850Z,0
2017-11-16T00:09:44.325Z,0
2017-11-16T00:10:44.890Z,0
2017-11-16T00:11:44.347Z,0
2017-11-16T00:12:44.910Z,0
2017-11-16T00:13:44.644Z,0
2017-11-16T00:14:44.667Z,0
2017-11-16T00:15:44.946Z,0
2017-11-16T00:16:44.687Z,0
2017-11-16T00:17:44.969Z,0
2017-11-16T00:18:44.742Z,0
2017-11-16T00:19:44.748Z,0
2017-11-16T00:20:44.761Z,0
2017-11-16T00:21:44.754Z,0
2017-11-16T00:22:44.511Z,0
2017-11-16T00:23:45.065Z,0
2017-11-16T00:24:45.079Z,0
2017-11-16T00:25:44.832Z,0
2017-11-16T00:26:45.101Z,0
2017-11-16T00:27:44.880Z,0
2017-11-16T00:28:44.871Z,0
2017-11-16T00:29:44.602Z,0
2017-11-16T00:30:44.917Z,0
2017-11-16T00:31:45.191Z,0
2017-11-16T00:32:44.655Z,0
2017-11-16T00:33:44.932Z,0
2017-11-16T00:34:44.943Z,0
2017-11-16T00:35:44.961Z,0
2017-11-16T00:36:45.264Z,0
2017-11-16T00:37:44.989Z,0
2017-11-16T00:38:45.009Z,0
2017-11-16T00:39:45.284Z,0
2017-11-16T00:40:45.320Z,0
2017-11-16T00:41:44.775Z,0
2017-11-16T00:42:45.080Z,0
2017-11-16T00:43:45.082Z,0
2017-11-16T00:44:45.390Z,0
2017-11-16T00:45:45.575Z,0
2017-11-16T00:46:45.389Z,0
2017-11-16T00:47:45.142Z,0
2017-11-16T00:48:44.624Z,0
2017-11-16T00:49:45.441Z,0
2017-11-16T00:50:45.451Z,0
2017-11-16T00:51:45.466Z,0
2017-11-16T00:52:45.212Z,0
2017-11-16T00:53:45.502Z,0
2017-11-16T00:54:44.970Z,0
2017-11-16T00:55:45.244Z,0
2017-11-16T00:56:45.263Z,0
2017-11-16T00:57:45.009Z,0
2017-11-16T00:58:45.570Z,0
2017-11-16T00:59:45.038Z,0
2017-11-16T01:00:45.590Z,0
2017-11-16T01:01:45.607Z,0
2017-11-16T01:02:45.381Z,0
2017-11-16T01:03:45.365Z,0
2017-11-16T01:04:45.391Z,0
2017-11-16T01:05:45.123Z,0
2017-11-16T01:06:45.140Z,0
2017-11-16T01:07:45.692Z,0
2017-11-16T01:08:45.447Z,0
2017-11-16T01:09:45.456Z,0
2017-11-16T01:10:45.464Z,0
2017-11-16T01:11:45.217Z,0
2017-11-16T01:12:45.502Z,0
2017-11-16T01:13:45.518Z,0
2017-11-16T01:14:45.254Z,0
2017-11-16T01:15:45.544Z,0
2017-11-16T01:16:45.823Z,0
2017-11-16T01:17:45.571Z,0
2017-11-16T01:18:45.574Z,0
2017-11-16T01:19:45.591Z,0
2017-11-16T01:20:45.619Z,0
2017-11-16T01:21:45.628Z,0
2017-11-16T01:22:45.902Z,0
2017-11-16T01:23:45.658Z,0
2017-11-16T01:24:45.674Z,0
2017-11-16T01:25:45.979Z,0
2017-11-16T01:26:45.696Z,0
2017-11-16T01:27:45.703Z,0
2017-11-16T01:28:45.496Z,0
2017-11-16T01:29:46.015Z,0
2017-11-16T01:30:46.022Z,0
2017-11-16T01:31:45.760Z,0
2017-11-16T01:32:46.040Z,0
2017-11-16T01:33:45.523Z,0
2017-11-16T01:34:46.089Z,0
2017-11-16T01:35:45.822Z,0
2017-11-16T01:36:45.570Z,0
2017-11-16T01:37:45.852Z,0
2017-11-16T01:38:45.879Z,0
2017-11-16T01:39:45.882Z,0
2017-11-16T01:40:46.165Z,0
2017-11-16T01:41:45.639Z,0
2017-11-16T01:42:45.383Z,0
2017-11-16T01:43:45.937Z,0
2017-11-16T01:44:45.948Z,0
2017-11-16T01:45:46.240Z,0
2017-11-16T01:46:46.257Z,0
2017-11-16T01:47:45.722Z,0
2017-11-16T01:48:46.295Z,0
2017-11-16T01:49:46.022Z,0
2017-11-16T01:50:46.306Z,0
2017-11-16T01:51:45.781Z,0
2017-11-16T01:52:46.344Z,0
2017-11-16T01:53:45.822Z,0
2017-11-16T01:54:46.111Z,0
2017-11-16T01:55:46.375Z,0
2017-11-16T01:56:46.128Z,0
2017-11-16T01:57:58.881Z,0
2017-11-16T01:58:46.144Z,0
2017-11-16T01:59:46.176Z,0
2017-11-16T02:00:46.173Z,0
2017-11-16T02:01:46.472Z,0
2017-11-16T02:02:46.206Z,0
2017-11-16T02:03:46.496Z,0
2017-11-16T02:04:46.501Z,0
2017-11-16T02:05:46.479Z,0
2017-11-16T02:06:45.995Z,0
2017-11-16T02:07:46.548Z,0
2017-11-16T02:08:46.303Z,0
2017-11-16T02:09:46.579Z,0
2017-11-16T02:10:46.594Z,0
2017-11-16T02:11:46.332Z,0
2017-11-16T02:12:46.754Z,0
2017-11-16T02:13:46.652Z,0
2017-11-16T02:14:46.645Z,0
2017-11-16T02:15:46.385Z,0
2017-11-16T02:16:46.406Z,0
2017-11-16T02:17:46.419Z,0
2017-11-16T02:18:46.697Z,0
2017-11-16T02:19:46.725Z,0
2017-11-16T02:20:46.722Z,0
2017-11-16T02:21:46.202Z,0
2017-11-16T02:22:46.484Z,0
2017-11-16T02:23:46.232Z,0
2017-11-16T02:24:46.255Z,0
2017-11-16T02:25:46.534Z,0
2017-11-16T02:26:46.545Z,0
2017-11-16T02:27:46.567Z,0
2017-11-16T02:28:46.851Z,0
2017-11-16T02:29:46.590Z,0
2017-11-16T02:30:46.622Z,0
2017-11-16T02:31:46.902Z,0
2017-11-16T02:32:46.917Z,0
2017-11-16T02:33:46.924Z,0
2017-11-16T02:34:46.946Z,0
2017-11-16T02:35:46.674Z,0
2017-11-16T02:36:46.690Z,0
2017-11-16T02:37:46.696Z,0
2017-11-16T02:38:46.987Z,0
2017-11-16T02:39:46.742Z,0
2017-11-16T02:40:46.755Z,0
2017-11-16T02:41:47.032Z,0
2017-11-16T02:42:47.057Z,0
2017-11-16T02:43:47.062Z,0
2017-11-16T02:44:46.806Z,0
2017-11-16T02:45:47.090Z,0
2017-11-16T02:46:46.831Z,0
2017-11-16T02:47:47.117Z,0
2017-11-16T02:48:47.124Z,0
2017-11-16T02:49:46.870Z,0
2017-11-16T02:50:46.900Z,0
2017-11-16T02:51:46.897Z,0
2017-11-16T02:52:46.911Z,0
2017-11-16T02:53:47.215Z,0
2017-11-16T02:54:47.208Z,0
2017-11-16T02:55:47.231Z,0
2017-11-16T02:56:47.243Z,0
2017-11-16T02:57:47.260Z,0
2017-11-16T02:58:47.003Z,0
2017-11-16T02:59:47.289Z,0
2017-11-16T03:00:47.289Z,0
2017-11-16T03:01:47.039Z,0
2017-11-16T03:02:47.316Z,0
2017-11-16T03:03:47.340Z,0
2017-11-16T03:04:47.088Z,0
2017-11-16T03:05:47.095Z,0
2017-11-16T03:06:47.100Z,0
2017-11-16T03:07:47.394Z,0
2017-11-16T03:08:46.867Z,0
2017-11-16T03:09:47.453Z,0
2017-11-16T03:10:47.157Z,0
2017-11-16T03:11:47.449Z,0
2017-11-16T03:12:47.183Z,0
2017-11-16T03:13:46.929Z,0
2017-11-16T03:14:47.255Z,0
2017-11-16T03:15:47.505Z,0
2017-11-16T03:16:47.239Z,0
2017-11-16T03:17:47.549Z,0
2017-11-16T03:18:47.273Z,0
2017-11-16T03:19:47.553Z,0
2017-11-16T03:20:47.031Z,0
2017-11-16T03:21:47.314Z,0
2017-11-16T03:22:47.433Z,0
2017-11-16T03:23:47.340Z,0
2017-11-16T03:24:47.354Z,0
2017-11-16T03:25:47.378Z,0
2017-11-16T03:26:47.113Z,0
2017-11-16T03:27:46.857Z,0
2017-11-16T03:28:47.678Z,0
2017-11-16T03:29:47.473Z,0
2017-11-16T03:30:47.724Z,0
2017-11-16T03:31:47.739Z,0
2017-11-16T03:32:47.749Z,0
2017-11-16T03:33:47.474Z,0
2017-11-16T03:34:47.492Z,0
2017-11-16T03:35:47.518Z,0
2017-11-16T03:36:47.787Z,0
2017-11-16T03:37:47.542Z,0
2017-11-16T03:38:47.547Z,0
2017-11-16T03:39:47.830Z,0
2017-11-16T03:40:47.861Z,0
2017-11-16T03:41:47.342Z,0
2017-11-16T03:42:47.909Z,0
2017-11-16T03:43:47.612Z,0
2017-11-16T03:44:47.371Z,0
2017-11-16T03:45:48.107Z,0
2017-11-16T03:46:47.660Z,0
2017-11-16T03:47:47.673Z,0
2017-11-16T03:48:47.971Z,0
2017-11-16T03:49:48.001Z,0
2017-11-16T03:50:47.731Z,0
2017-11-16T03:51:47.188Z,0
2017-11-16T03:52:47.754Z,0
2017-11-16T03:53:47.541Z,0
2017-11-16T03:54:47.762Z,0
2017-11-16T03:55:48.248Z,0
2017-11-16T03:56:47.536Z,0
2017-11-16T03:57:47.901Z,0
2017-11-16T03:58:47.609Z,0
2017-11-16T03:59:47.852Z,0
2017-11-16T04:00:47.942Z,0
2017-11-16T04:01:47.873Z,0
2017-11-16T04:02:48.012Z,0
2017-11-16T04:03:48.184Z,0
2017-11-16T04:04:48.180Z,0
2017-11-16T04:05:47.926Z,0
2017-11-16T04:06:47.939Z,0
2017-11-16T04:07:47.952Z,0
2017-11-16T04:08:48.231Z,0
2017-11-16T04:09:47.714Z,0
2017-11-16T04:10:47.722Z,0
2017-11-16T04:11:48.002Z,0
2017-11-16T04:12:47.746Z,0
2017-11-16T04:13:47.769Z,0
2017-11-16T04:14:48.041Z,0
2017-11-16T04:15:48.361Z,0
2017-11-16T04:16:48.072Z,0
2017-11-16T04:17:47.857Z,0
2017-11-16T04:18:48.379Z,0
2017-11-16T04:19:48.377Z,0
2017-11-16T04:20:48.124Z,0
2017-11-16T04:21:48.142Z,0
2017-11-16T04:22:48.426Z,0
2017-11-16T04:23:47.917Z,0
2017-11-16T04:24:47.933Z,0
2017-11-16T04:25:47.926Z,0
2017-11-16T04:26:48.222Z,0
2017-11-16T04:27:48.235Z,0
2017-11-16T04:28:48.241Z,0
2017-11-16T04:29:48.599Z,0
2017-11-16T04:30:48.270Z,0
2017-11-16T04:31:48.278Z,0
2017-11-16T04:32:48.021Z,0
2017-11-16T04:33:47.767Z,0
2017-11-16T04:34:48.058Z,0
2017-11-16T04:35:48.330Z,0
2017-11-16T04:36:48.370Z,0
2017-11-16T04:37:48.367Z,0
2017-11-16T04:38:48.446Z,0
2017-11-16T04:39:48.392Z,0
2017-11-16T04:40:48.424Z,0
2017-11-16T04:41:48.419Z,0
2017-11-16T04:42:48.701Z,0
2017-11-16T04:43:48.544Z,0
2017-11-16T04:44:48.486Z,0
2017-11-16T04:45:47.930Z,0
2017-11-16T04:46:48.533Z,0
2017-11-16T04:47:48.226Z,0
2017-11-16T04:48:48.609Z,0
2017-11-16T04:49:48.253Z,0
2017-11-16T04:50:48.273Z,0
2017-11-16T04:51:48.286Z,0
2017-11-16T04:52:48.295Z,0
2017-11-16T04:53:48.581Z,0
2017-11-16T04:54:48.328Z,0
2017-11-16T04:55:48.878Z,0
2017-11-16T04:56:48.621Z,0
2017-11-16T04:57:48.634Z,0
2017-11-16T04:58:48.379Z,0
2017-11-16T04:59:48.963Z,0
2017-11-16T05:00:48.682Z,0
2017-11-16T05:01:48.686Z,0
2017-11-16T05:02:48.705Z,0
2017-11-16T05:03:48.448Z,0
2017-11-16T05:04:48.730Z,0
2017-11-16T05:05:48.477Z,0
2017-11-16T05:06:48.492Z,0
2017-11-16T05:07:48.771Z,0
2017-11-16T05:08:48.514Z,0
2017-11-16T05:09:48.807Z,0
2017-11-16T05:10:48.829Z,0
2017-11-16T05:11:49.090Z,0
2017-11-16T05:12:48.853Z,0
2017-11-16T05:13:49.122Z,0
2017-11-16T05:14:48.871Z,0
2017-11-16T05:15:49.166Z,0
2017-11-16T05:16:49.179Z,0
2017-11-16T05:17:48.914Z,0
2017-11-16T05:18:48.649Z,0
2017-11-16T05:19:48.961Z,0
2017-11-16T05:20:49.233Z,0
2017-11-16T05:21:48.967Z,0
2017-11-16T05:22:48.434Z,0
2017-11-16T05:23:49.010Z,0
2017-11-16T05:24:49.002Z,0
2017-11-16T05:25:48.750Z,0
2017-11-16T05:26:49.310Z,0
2017-11-16T05:27:49.042Z,0
2017-11-16T05:28:49.336Z,0
2017-11-16T05:29:49.350Z,0
2017-11-16T05:30:49.353Z,0
2017-11-16T05:31:49.374Z,0
2017-11-16T05:32:49.380Z,0
2017-11-16T05:33:49.396Z,0
2017-11-16T05:34:49.140Z,0
2017-11-16T05:35:49.165Z,0
2017-11-16T05:36:49.175Z,0
2017-11-16T05:37:49.461Z,0
2017-11-16T05:38:48.927Z,0
2017-11-16T05:39:48.937Z,0
2017-11-16T05:40:48.959Z,0
2017-11-16T05:41:49.094Z,0
2017-11-16T05:42:48.988Z,0
2017-11-16T05:43:49.294Z,0
2017-11-16T05:44:49.553Z,0
2017-11-16T05:45:49.561Z,0
2017-11-16T05:46:49.040Z,0
2017-11-16T05:47:49.052Z,0
2017-11-16T05:48:49.348Z,0
2017-11-16T05:49:49.384Z,0
2017-11-16T05:50:49.092Z,0
2017-11-16T05:51:49.637Z,0
2017-11-16T05:52:49.385Z,0
2017-11-16T05:53:49.125Z,0
2017-11-16T05:54:49.418Z,0
2017-11-16T05:55:49.431Z,0
2017-11-16T05:56:49.715Z,0
2017-11-16T05:57:49.187Z,0
2017-11-16T05:58:49.463Z,0
2017-11-16T05:59:49.762Z,0
2017-11-16T06:00:49.230Z,0
2017-11-16T06:01:49.778Z,0
2017-11-16T06:02:49.523Z,0
2017-11-16T06:03:49.804Z,0
2017-11-16T06:04:49.279Z,0
2017-11-16T06:05:49.834Z,0
2017-11-16T06:06:49.845Z,4
2017-11-16T06:07:49.591Z,0
2017-11-16T06:08:49.601Z,4
2017-11-16T06:09:49.346Z,4
2017-11-16T06:10:49.464Z,4
2017-11-16T06:11:49.939Z,4
2017-11-16T06:12:49.666Z,4
2017-11-16T06:13:49.945Z,8
2017-11-16T06:14:49.692Z,8
2017-11-16T06:15:49.718Z,8
2017-11-16T06:16:49.719Z,8
2017-11-16T06:17:49.993Z,8
2017-11-16T06:18:50.014Z,8
2017-11-16T06:19:49.245Z,12
2017-11-16T06:20:50.093Z,12
2017-11-16T06:21:49.774Z,12
2017-11-16T06:22:49.791Z,16
2017-11-16T06:23:49.543Z,16
2017-11-16T06:24:49.823Z,20
2017-11-16T06:25:50.100Z,20
2017-11-16T06:26:50.143Z,20
2017-11-16T06:27:50.131Z,24
2017-11-16T06:28:49.869Z,24
2017-11-16T06:29:50.161Z,28
2017-11-16T06:30:50.163Z,28
2017-11-16T06:31:49.917Z,32
2017-11-16T06:32:50.201Z,36
2017-11-16T06:33:50.229Z,40
2017-11-16T06:34:50.223Z,40
2017-11-16T06:35:49.976Z,40
2017-11-16T06:36:50.260Z,44
2017-11-16T06:37:49.727Z,48
2017-11-16T06:38:50.280Z,52
2017-11-16T06:39:50.033Z,56
2017-11-16T06:40:50.322Z,64
2017-11-16T06:41:50.047Z,64
2017-11-16T06:42:50.335Z,72
2017-11-16T06:43:50.070Z,76
2017-11-16T06:44:50.356Z,80
2017-11-16T06:45:50.375Z,88
2017-11-16T06:46:50.388Z,96
2017-11-16T06:47:50.128Z,100
2017-11-16T06:48:50.421Z,112
2017-11-16T06:49:50.424Z,120
2017-11-16T06:50:50.174Z,124
2017-11-16T06:51:50.459Z,132
2017-11-16T06:52:50.218Z,140
2017-11-16T06:53:49.939Z,144
2017-11-16T06:54:50.239Z,152
2017-11-16T06:55:50.536Z,156
2017-11-16T06:56:50.518Z,168
2017-11-16T06:57:50.049Z,172
2017-11-16T06:58:50.605Z,184
2017-11-16T06:59:50.060Z,196
2017-11-16T07:00:50.498Z,208
2017-11-16T07:01:50.323Z,220
2017-11-16T07:02:50.606Z,228
2017-11-16T07:03:50.363Z,236
2017-11-16T07:04:50.382Z,236
2017-11-16T07:05:49.833Z,236
2017-11-16T07:06:50.395Z,236
2017-11-16T07:07:50.678Z,236
2017-11-16T07:08:50.723Z,236
2017-11-16T07:09:50.430Z,244
2017-11-16T07:10:50.439Z,244
2017-11-16T07:11:50.460Z,240
2017-11-16T07:12:50.480Z,248
2017-11-16T07:13:50.486Z,256
2017-11-16T07:14:50.799Z,264
2017-11-16T07:15:50.796Z,264
2017-11-16T07:16:50.606Z,268
2017-11-16T07:17:50.766Z,284
2017-11-16T07:18:50.550Z,292
2017-11-16T07:19:50.568Z,308
2017-11-16T07:20:50.590Z,320
2017-11-16T07:21:50.618Z,348
2017-11-16T07:22:50.331Z,360
2017-11-16T07:23:50.887Z,336
2017-11-16T07:24:50.629Z,332
2017-11-16T07:25:50.919Z,320
2017-11-16T07:26:50.389Z,312
2017-11-16T07:27:50.946Z,328
2017-11-16T07:28:50.685Z,340
2017-11-16T07:29:50.694Z,340
2017-11-16T07:30:50.985Z,344
2017-11-16T07:31:51.002Z,328
2017-11-16T07:32:51.011Z,316
2017-11-16T07:33:50.756Z,320
2017-11-16T07:34:51.040Z,324
2017-11-16T07:35:51.052Z,332
2017-11-16T07:36:50.791Z,344
2017-11-16T07:37:50.268Z,352
2017-11-16T07:38:50.829Z,360
2017-11-16T07:39:51.110Z,360
2017-11-16T07:40:51.115Z,360
2017-11-16T07:41:51.133Z,364
2017-11-16T07:42:50.873Z,372
2017-11-16T07:43:51.174Z,380
2017-11-16T07:44:50.909Z,360
2017-11-16T07:45:51.204Z,360
2017-11-16T07:46:51.202Z,364
2017-11-16T07:47:50.945Z,364
2017-11-16T07:48:50.684Z,372
2017-11-16T07:49:50.963Z,384
2017-11-16T07:50:51.252Z,396
2017-11-16T07:51:51.267Z,408
2017-11-16T07:52:51.017Z,428
2017-11-16T07:53:51.301Z,436
2017-11-16T07:54:51.037Z,452
2017-11-16T07:55:51.323Z,476
2017-11-16T07:56:51.066Z,484
2017-11-16T07:57:51.345Z,500
2017-11-16T07:58:51.103Z,516
2017-11-16T07:59:51.395Z,524
2017-11-16T08:00:51.114Z,524
2017-11-16T08:01:51.399Z,512
2017-11-16T08:02:51.167Z,496
2017-11-16T08:03:51.443Z,500
2017-11-16T08:04:51.446Z,504
2017-11-16T08:05:50.923Z,492
2017-11-16T08:06:51.204Z,480
2017-11-16T08:07:51.210Z,472
2017-11-16T08:08:51.504Z,464
2017-11-16T08:09:51.511Z,448
2017-11-16T08:10:51.519Z,444
2017-11-16T08:11:50.999Z,460
2017-11-16T08:12:51.295Z,476
2017-11-16T08:13:51.577Z,476
2017-11-16T08:14:51.308Z,500
2017-11-16T08:15:51.329Z,540
2017-11-16T08:16:51.359Z,556
2017-11-16T08:17:51.362Z,552
2017-11-16T08:18:51.648Z,548
2017-11-16T08:19:51.376Z,568
2017-11-16T08:20:51.667Z,624
2017-11-16T08:21:51.410Z,632
2017-11-16T08:22:51.422Z,668
2017-11-16T08:23:51.165Z,664
2017-11-16T08:24:51.713Z,644
2017-11-16T08:25:51.742Z,688
2017-11-16T08:26:51.479Z,672
2017-11-16T08:27:51.813Z,596
2017-11-16T08:28:51.226Z,572
2017-11-16T08:29:51.519Z,528
2017-11-16T08:30:51.263Z,552
2017-11-16T08:31:51.816Z,620
2017-11-16T08:32:51.832Z,580
2017-11-16T08:33:51.305Z,572
2017-11-16T08:34:51.588Z,568
2017-11-16T08:35:51.861Z,596
2017-11-16T08:36:51.883Z,712
2017-11-16T08:37:51.628Z,672
2017-11-16T08:38:51.914Z,700
2017-11-16T08:39:51.390Z,696
2017-11-16T08:40:51.941Z,676
2017-11-16T08:41:51.948Z,796
2017-11-16T08:42:51.760Z,816
2017-11-16T08:43:51.440Z,880
2017-11-16T08:44:51.990Z,840
2017-11-16T08:45:51.743Z,860
2017-11-16T08:46:51.753Z,780
2017-11-16T08:47:51.769Z,748
2017-11-16T08:48:51.771Z,776
2017-11-16T08:49:52.067Z,788
2017-11-16T08:50:52.072Z,756
2017-11-16T08:51:51.815Z,744
2017-11-16T08:52:51.562Z,796
2017-11-16T08:53:52.114Z,844
2017-11-16T08:54:51.592Z,824
2017-11-16T08:55:52.145Z,828
2017-11-16T08:56:52.177Z,860
2017-11-16T08:57:51.899Z,764
2017-11-16T08:58:52.184Z,764
2017-11-16T08:59:52.247Z,740
2017-11-16T09:00:51.942Z,708
2017-11-16T09:01:52.225Z,724
2017-11-16T09:02:52.246Z,804
2017-11-16T09:03:51.983Z,800
2017-11-16T09:04:51.729Z,740
2017-11-16T09:05:51.739Z,784
2017-11-16T09:06:52.020Z,904
2017-11-16T09:07:52.041Z,872
2017-11-16T09:08:52.324Z,872
2017-11-16T09:09:52.338Z,988
2017-11-16T09:10:52.353Z,852
2017-11-16T09:11:52.364Z,892
2017-11-16T09:12:52.383Z,816
2017-11-16T09:13:52.441Z,888
2017-11-16T09:14:52.139Z,944
2017-11-16T09:15:52.150Z,936
2017-11-16T09:16:51.893Z,840
2017-11-16T09:17:52.470Z,800
2017-11-16T09:18:51.924Z,748
2017-11-16T09:19:51.940Z,700
2017-11-16T09:20:51.980Z,700
2017-11-16T09:21:52.507Z,684
2017-11-16T09:22:52.513Z,696
2017-11-16T09:23:52.541Z,728
2017-11-16T09:24:52.290Z,752
2017-11-16T09:25:52.561Z,880
2017-11-16T09:26:52.572Z,844
2017-11-16T09:27:52.606Z,1096
2017-11-16T09:28:52.610Z,964
2017-11-16T09:29:52.349Z,916
2017-11-16T09:30:52.638Z,928
2017-11-16T09:31:52.138Z,1180
2017-11-16T09:32:52.411Z,1040
2017-11-16T09:33:51.858Z,1072
2017-11-16T09:34:52.682Z,1124
2017-11-16T09:35:52.428Z,948
2017-11-16T09:36:52.736Z,904
2017-11-16T09:37:52.187Z,1004
2017-11-16T09:38:52.200Z,932
2017-11-16T09:39:52.815Z,952
2017-11-16T09:40:52.817Z,968
2017-11-16T09:41:52.788Z,952
2017-11-16T09:42:52.816Z,980
2017-11-16T09:43:52.588Z,1020
2017-11-16T09:44:52.833Z,1060
2017-11-16T09:45:52.586Z,1076
2017-11-16T09:46:52.595Z,1080
2017-11-16T09:47:52.864Z,1144
2017-11-16T09:48:52.611Z,1108
2017-11-16T09:49:52.904Z,1136
2017-11-16T09:50:52.919Z,1084
2017-11-16T09:51:52.932Z,1160
2017-11-16T09:52:52.952Z,1168
2017-11-16T09:53:52.963Z,1192
2017-11-16T09:54:52.440Z,1008
2017-11-16T09:55:52.978Z,1120
2017-11-16T09:56:53.037Z,1092
2017-11-16T09:57:53.009Z,1064
2017-11-16T09:58:52.217Z,1140
2017-11-16T09:59:53.045Z,952
2017-11-16T10:00:53.056Z,1148
2017-11-16T10:01:53.080Z,1076
2017-11-16T10:02:53.094Z,936
2017-11-16T10:03:53.100Z,928
2017-11-16T10:04:53.115Z,936
2017-11-16T10:05:52.860Z,924
2017-11-16T10:06:52.873Z,880
2017-11-16T10:07:53.150Z,872
2017-11-16T10:08:52.901Z,868
2017-11-16T10:09:53.190Z,856
2017-11-16T10:10:53.212Z,840
2017-11-16T10:11:53.223Z,868
2017-11-16T10:12:53.250Z,852
2017-11-16T10:13:52.702Z,840
2017-11-16T10:14:53.263Z,848
2017-11-16T10:15:53.030Z,852
2017-11-16T10:16:53.290Z,848
2017-11-16T10:17:53.076Z,844
2017-11-16T10:18:53.324Z,844
2017-11-16T10:19:53.067Z,876
2017-11-16T10:20:53.078Z,980
2017-11-16T10:21:53.371Z,984
2017-11-16T10:22:52.846Z,1068
2017-11-16T10:23:53.392Z,1032
2017-11-16T10:24:53.140Z,1096
2017-11-16T10:25:53.418Z,1220
2017-11-16T10:26:52.892Z,1108
2017-11-16T10:27:53.445Z,1000
2017-11-16T10:28:53.460Z,984
2017-11-16T10:29:53.214Z,1072
2017-11-16T10:30:53.222Z,1112
2017-11-16T10:31:53.511Z,1092
2017-11-16T10:32:53.254Z,1152
2017-11-16T10:33:53.534Z,1076
2017-11-16T10:34:53.286Z,1072
2017-11-16T10:35:53.565Z,1076
2017-11-16T10:36:53.307Z,1096
2017-11-16T10:37:53.598Z,1012
2017-11-16T10:38:53.349Z,984
2017-11-16T10:39:53.347Z,1100
2017-11-16T10:40:53.673Z,1168
2017-11-16T10:41:53.667Z,1040
2017-11-16T10:42:53.671Z,1024
2017-11-16T10:43:53.422Z,1096
2017-11-16T10:44:53.703Z,1104
2017-11-16T10:45:53.737Z,1084
2017-11-16T10:46:53.727Z,1060
2017-11-16T10:47:53.483Z,1100
2017-11-16T10:48:53.761Z,1028
2017-11-16T10:49:53.789Z,996
2017-11-16T10:50:53.784Z,1032
2017-11-16T10:51:53.548Z,1108
2017-11-16T10:52:53.812Z,1220
2017-11-16T10:53:53.564Z,1172
2017-11-16T10:54:53.572Z,1212
2017-11-16T10:55:53.584Z,1200
2017-11-16T10:56:53.603Z,1252
2017-11-16T10:57:53.345Z,1244
2017-11-16T10:58:53.935Z,1216
2017-11-16T10:59:53.372Z,1200
2017-11-16T11:00:53.682Z,1300
2017-11-16T11:01:53.679Z,1428
2017-11-16T11:02:53.969Z,1352
2017-11-16T11:03:53.742Z,1364
2017-11-16T11:04:53.999Z,1604
2017-11-16T11:05:54.005Z,1452
2017-11-16T11:06:54.023Z,1276
2017-11-16T11:07:54.035Z,1280
2017-11-16T11:08:53.788Z,1312
2017-11-16T11:09:54.362Z,1172
2017-11-16T11:10:54.094Z,1088
2017-11-16T11:11:54.096Z,1088
2017-11-16T11:12:54.109Z,1192
2017-11-16T11:13:53.587Z,1212
2017-11-16T11:14:53.868Z,1204
2017-11-16T11:15:53.886Z,1156
2017-11-16T11:16:54.166Z,1120
2017-11-16T11:17:53.911Z,1132
2017-11-16T11:18:54.204Z,1180
2017-11-16T11:19:53.942Z,1184
2017-11-16T11:20:53.968Z,1116
2017-11-16T11:21:53.978Z,1120
2017-11-16T11:22:54.274Z,1104
2017-11-16T11:23:54.005Z,1100
2017-11-16T11:24:54.291Z,1120
2017-11-16T11:25:54.303Z,1120
2017-11-16T11:26:54.052Z,1132
2017-11-16T11:27:54.373Z,1124
2017-11-16T11:28:54.363Z,1124
2017-11-16T11:29:54.104Z,1116
2017-11-16T11:30:54.115Z,1152
2017-11-16T11:31:54.127Z,1132
2017-11-16T11:32:54.420Z,1112
2017-11-16T11:33:54.163Z,1120
2017-11-16T11:34:54.460Z,1116
2017-11-16T11:35:54.472Z,1168
2017-11-16T11:36:53.658Z,1220
2017-11-16T11:37:54.516Z,1200
2017-11-16T11:38:54.498Z,1152
2017-11-16T11:39:53.974Z,1104
2017-11-16T11:40:54.534Z,1088
2017-11-16T11:41:54.005Z,1108
2017-11-16T11:42:54.571Z,1144
2017-11-16T11:43:54.576Z,1136
2017-11-16T11:44:54.602Z,1124
2017-11-16T11:45:54.350Z,1192
2017-11-16T11:46:54.653Z,1292
2017-11-16T11:47:54.636Z,1276
2017-11-16T11:48:54.386Z,1204
2017-11-16T11:49:54.673Z,1144
2017-11-16T11:50:54.689Z,1152
2017-11-16T11:51:54.701Z,1196
2017-11-16T11:52:54.173Z,1212
2017-11-16T11:53:54.739Z,1208
2017-11-16T11:54:54.755Z,1176
2017-11-16T11:55:54.810Z,1176
2017-11-16T11:56:54.781Z,1196
2017-11-16T11:57:54.524Z,1152
2017-11-16T11:58:54.538Z,1108
2017-11-16T11:59:54.561Z,1072
2017-11-16T12:00:54.839Z,1040
2017-11-16T12:01:54.866Z,1140
2017-11-16T12:02:54.606Z,1028
2017-11-16T12:03:54.906Z,1052
2017-11-16T12:04:54.903Z,1132
2017-11-16T12:05:54.921Z,1080
2017-11-16T12:06:54.961Z,1124
2017-11-16T12:07:54.689Z,1100
2017-11-16T12:08:54.693Z,1124
2017-11-16T12:09:54.709Z,1084
2017-11-16T12:10:54.769Z,1108
2017-11-16T12:11:55.006Z,1104
2017-11-16T12:12:54.756Z,1168
2017-11-16T12:13:54.776Z,1100
2017-11-16T12:14:54.515Z,1176
2017-11-16T12:15:54.532Z,1148
2017-11-16T12:16:55.090Z,1116
2017-11-16T12:17:55.100Z,1144
2017-11-16T12:18:54.585Z,1136
2017-11-16T12:19:55.135Z,1144
2017-11-16T12:20:55.149Z,1188
2017-11-16T12:21:54.888Z,1188
2017-11-16T12:22:55.192Z,1240
2017-11-16T12:23:54.923Z,1248
2017-11-16T12:24:55.241Z,1228
2017-11-16T12:25:55.226Z,1172
2017-11-16T12:26:55.250Z,1132
2017-11-16T12:27:55.264Z,1108
2017-11-16T12:28:55.283Z,1076
2017-11-16T12:29:55.300Z,1008
2017-11-16T12:30:55.332Z,972
2017-11-16T12:31:55.327Z,908
2017-11-16T12:32:55.350Z,876
2017-11-16T12:33:55.356Z,872
2017-11-16T12:34:55.362Z,840
2017-11-16T12:35:55.388Z,852
2017-11-16T12:36:55.394Z,856
2017-11-16T12:37:55.143Z,876
2017-11-16T12:38:55.435Z,896
2017-11-16T12:39:55.447Z,904
2017-11-16T12:40:55.461Z,904
2017-11-16T12:41:55.475Z,896
2017-11-16T12:42:55.220Z,888
2017-11-16T12:43:55.240Z,872
2017-11-16T12:44:55.539Z,860
2017-11-16T12:45:55.540Z,856
2017-11-16T12:46:55.560Z,856
2017-11-16T12:47:55.571Z,852
2017-11-16T12:48:55.591Z,840
2017-11-16T12:49:55.329Z,808
2017-11-16T12:50:55.622Z,776
2017-11-16T12:51:55.381Z,748
2017-11-16T12:52:55.110Z,724
2017-11-16T12:53:55.664Z,716
2017-11-16T12:54:55.406Z,716
2017-11-16T12:55:55.692Z,720
2017-11-16T12:56:55.447Z,728
2017-11-16T12:57:55.197Z,748
2017-11-16T12:58:55.480Z,772
2017-11-16T12:59:55.756Z,796
2017-11-16T13:00:55.517Z,816
2017-11-16T13:01:55.788Z,840
2017-11-16T13:02:55.813Z,844
2017-11-16T13:03:55.546Z,844
2017-11-16T13:04:55.570Z,836
2017-11-16T13:05:55.312Z,836
2017-11-16T13:06:55.876Z,844
2017-11-16T13:07:55.611Z,840
2017-11-16T13:08:55.906Z,832
2017-11-16T13:09:55.652Z,828
2017-11-16T13:10:55.948Z,828
2017-11-16T13:11:55.956Z,820
2017-11-16T13:12:55.699Z,804
2017-11-16T13:13:55.990Z,784
2017-11-16T13:14:55.992Z,768
2017-11-16T13:15:55.475Z,756
2017-11-16T13:16:55.755Z,736
2017-11-16T13:17:55.503Z,720
2017-11-16T13:18:56.058Z,708
2017-11-16T13:19:56.088Z,704
2017-11-16T13:20:55.819Z,704
2017-11-16T13:21:56.111Z,704
2017-11-16T13:22:56.175Z,696
2017-11-16T13:23:56.142Z,676
2017-11-16T13:24:56.145Z,648
2017-11-16T13:25:56.168Z,624
2017-11-16T13:26:56.205Z,608
2017-11-16T13:27:55.930Z,604
2017-11-16T13:28:56.213Z,620
2017-11-16T13:29:56.221Z,636
2017-11-16T13:30:56.254Z,648
2017-11-16T13:31:55.997Z,648
2017-11-16T13:32:56.013Z,644
2017-11-16T13:33:56.297Z,636
2017-11-16T13:34:56.045Z,636
2017-11-16T13:35:56.051Z,636
2017-11-16T13:36:56.081Z,636
2017-11-16T13:37:56.083Z,648
2017-11-16T13:38:56.110Z,652
2017-11-16T13:39:55.856Z,648
2017-11-16T13:40:56.402Z,636
2017-11-16T13:41:56.163Z,624
2017-11-16T13:42:56.163Z,612
2017-11-16T13:43:55.917Z,612
2017-11-16T13:44:56.196Z,620
2017-11-16T13:45:56.490Z,640
2017-11-16T13:46:56.492Z,656
2017-11-16T13:47:56.515Z,664
2017-11-16T13:48:56.254Z,656
2017-11-16T13:49:56.281Z,632
2017-11-16T13:50:56.305Z,600
2017-11-16T13:51:56.577Z,568
2017-11-16T13:52:56.609Z,528
2017-11-16T13:53:56.617Z,488
2017-11-16T13:54:56.356Z,460
2017-11-16T13:55:56.638Z,444
2017-11-16T13:56:56.385Z,456
2017-11-16T13:57:56.397Z,476
2017-11-16T13:58:56.686Z,508
2017-11-16T13:59:56.633Z,532
2017-11-16T14:00:56.726Z,532
2017-11-16T14:01:56.729Z,516
2017-11-16T14:02:56.484Z,496
2017-11-16T14:03:56.502Z,472
2017-11-16T14:04:56.783Z,460
2017-11-16T14:05:56.810Z,452
2017-11-16T14:06:56.268Z,440
2017-11-16T14:07:56.826Z,424
2017-11-16T14:08:56.633Z,392